createdAt,value
2023-01-25T00:01:05.269Z,100774.91
2023-01-25T00:03:33.661Z,100763.31
2023-01-25T00:06:01.989Z,100761.56
2023-01-25T00:08:30.343Z,100763.44
2023-01-25T00:10:58.777Z,100761.72
2023-01-25T00:13:27.220Z,100766.78
2023-01-25T00:16:01.926Z,100770.84
2023-01-25T00:18:30.681Z,100780.13
2023-01-25T00:20:58.628Z,100783.31
2023-01-25T00:23:26.662Z,100780.75
2023-01-25T00:25:58.850Z,100774.03
2023-01-25T00:28:27.081Z,100782.37
2023-01-25T07:20:12.008Z,100760.31
2023-01-25T07:22:40.598Z,100760.31
2023-01-25T07:25:09.245Z,100764.75
2023-01-25T07:27:37.489Z,100759.94
2023-01-25T07:30:06.757Z,100761.38
2023-01-25T07:32:34.686Z,100759.25
2023-01-25T07:35:02.609Z,100760.69
2023-01-25T07:37:30.876Z,100762.69
2023-01-25T07:39:58.904Z,100761.19
2023-01-25T07:42:26.774Z,100762.69
2023-01-25T07:45:11.386Z,100765.75
2023-01-25T07:47:39.696Z,100767.91
2023-01-25T07:50:08.708Z,100758.69
2023-01-25T07:52:38.054Z,100764.00
2023-01-25T07:55:06.344Z,100762.22
2023-01-25T07:57:34.603Z,100756.59
2023-01-25T08:00:02.864Z,100759.13
2023-01-25T08:02:40.477Z,100775.97
2023-01-25T08:05:09.479Z,100763.19
2023-01-25T08:07:37.627Z,100767.94
2023-01-25T08:10:07.273Z,100760.38
2023-01-25T08:12:35.560Z,100768.06
2023-01-25T08:15:03.696Z,100760.66
2023-01-25T08:17:31.867Z,100764.34
2023-01-25T08:20:01.771Z,100763.47
2023-01-25T08:22:29.697Z,100763.06
2023-01-25T08:24:57.743Z,100762.00
2023-01-25T08:27:26.026Z,100758.41
2023-01-25T08:29:55.170Z,100754.03
2023-01-25T08:32:23.178Z,100757.88
2023-01-25T08:34:52.800Z,100756.56
2023-01-25T08:37:20.745Z,100756.88
2023-01-25T08:39:48.633Z,100754.53
2023-01-25T08:42:16.875Z,100757.78
2023-01-25T08:44:44.741Z,100747.72
2023-01-25T08:47:13.026Z,100749.06
2023-01-25T08:49:41.487Z,100745.28
2023-01-25T08:52:09.401Z,100741.78
2023-01-25T08:54:37.358Z,100740.88
2023-01-25T08:57:06.612Z,100745.06
2023-01-25T08:59:34.839Z,100735.87
2023-01-25T09:02:02.752Z,100730.91
2023-01-25T09:04:31.901Z,100734.09
2023-01-25T09:07:01.145Z,100734.06
2023-01-25T09:09:30.251Z,100731.72
2023-01-25T09:12:00.410Z,100729.81
2023-01-25T09:14:28.496Z,100733.44
2023-01-25T09:16:58.169Z,100734.88
2023-01-25T09:19:26.513Z,100734.22
2023-01-25T09:21:54.396Z,100730.47
2023-01-25T09:24:22.509Z,100726.41
2023-01-25T09:26:59.380Z,100728.59
2023-01-25T09:29:28.177Z,100728.44
2023-01-25T09:31:56.661Z,100724.00
2023-01-25T09:34:25.551Z,100725.78
2023-01-25T09:36:55.175Z,100725.84
2023-01-25T09:39:23.513Z,100728.03
2023-01-25T09:42:22.726Z,100724.78
2023-01-25T09:45:09.260Z,100725.19
2023-01-25T09:47:37.193Z,100725.88
2023-01-25T09:50:09.298Z,100716.66
2023-01-25T09:53:19.010Z,100711.22
2023-01-25T09:55:54.319Z,100712.22
2023-01-25T09:58:26.703Z,100705.47
2023-01-25T10:01:36.754Z,100705.37
2023-01-25T10:04:19.594Z,100699.06
2023-01-25T10:07:00.049Z,100688.31
2023-01-25T10:09:44.298Z,100685.72
2023-01-25T10:12:16.022Z,100687.50
2023-01-25T10:14:46.406Z,100681.22
2023-01-25T10:17:35.953Z,100672.84
2023-01-25T10:20:41.055Z,100676.22
2023-01-25T10:23:08.955Z,100667.87
2023-01-25T10:25:44.427Z,100664.56
2023-01-25T10:28:25.067Z,100655.34
2023-01-25T10:30:55.257Z,100657.63
2023-01-25T10:33:23.252Z,100658.66
2023-01-25T10:35:51.637Z,100654.81
2023-01-25T10:38:35.175Z,100654.03
2023-01-25T10:41:08.144Z,100653.00
2023-01-25T10:43:36.263Z,100649.16
2023-01-25T10:46:09.104Z,100644.00
2023-01-25T10:48:40.195Z,100641.75
2023-01-25T10:51:08.560Z,100637.72
2023-01-25T10:53:44.444Z,100640.31
2023-01-25T10:56:24.113Z,100639.16
2023-01-25T10:58:54.725Z,100638.09
2023-01-25T11:01:31.841Z,100634.34
2023-01-25T11:04:02.694Z,100633.94
2023-01-25T11:06:36.681Z,100625.69
2023-01-25T11:09:23.260Z,100621.66
2023-01-25T11:11:56.802Z,100616.47
2023-01-25T11:14:27.615Z,100606.37
2023-01-25T11:16:57.176Z,100604.88
2023-01-25T11:19:42.299Z,100605.66
2023-01-25T11:22:24.696Z,100602.53
2023-01-25T11:24:53.345Z,100597.81
2023-01-25T11:27:26.768Z,100598.78
2023-01-25T11:30:12.760Z,100590.34
2023-01-25T11:32:41.919Z,100586.50
2023-01-25T11:35:16.284Z,100581.38
2023-01-25T11:38:02.394Z,100581.47
2023-01-25T11:40:42.455Z,100578.84
2023-01-25T11:43:29.624Z,100574.09
2023-01-25T11:46:10.406Z,100569.13
2023-01-25T11:48:52.126Z,100570.16
2023-01-25T11:52:00.306Z,100558.19
2023-01-25T11:54:43.458Z,100546.72
2023-01-25T11:57:52.336Z,100538.34
2023-01-25T12:00:51.908Z,100527.03
2023-01-25T12:03:34.679Z,100522.56
2023-01-25T12:06:30.096Z,100508.84
2023-01-25T12:09:22.583Z,100511.06
2023-01-25T12:12:27.616Z,100509.72
2023-01-25T12:15:17.500Z,100501.94
2023-01-25T12:18:13.435Z,100500.16
2023-01-25T12:20:57.209Z,100493.72
2023-01-25T12:23:54.384Z,100491.84
2023-01-25T12:26:28.051Z,100488.13
2023-01-25T12:29:11.489Z,100487.63
2023-01-25T12:31:50.475Z,100482.25
2023-01-25T12:34:39.012Z,100486.06
2023-01-25T12:37:15.832Z,100488.25
2023-01-25T12:39:57.744Z,100482.34
2023-01-25T12:42:48.220Z,100482.69
2023-01-25T12:45:25.829Z,100474.59
2023-01-25T12:48:01.087Z,100476.16
2023-01-25T12:50:34.775Z,100467.97
2023-01-25T12:53:05.578Z,100467.69
2023-01-25T12:55:33.951Z,100477.16
2023-01-25T12:58:32.759Z,100476.34
2023-01-25T13:01:32.183Z,100463.56
2023-01-25T13:04:11.394Z,100466.06
2023-01-25T14:07:38.102Z,100423.81
2023-01-25T14:10:12.219Z,100416.87
2023-01-25T14:12:42.455Z,100415.25
2023-01-25T14:15:26.740Z,100414.50
2023-01-25T14:18:19.279Z,100414.22
2023-01-25T14:20:51.846Z,100414.22
2023-01-25T14:23:24.337Z,100419.22
2023-01-25T14:25:54.285Z,100423.87
2023-01-25T14:28:22.913Z,100410.06
2023-01-25T14:30:56.397Z,100410.59
2023-01-25T14:33:32.567Z,100405.50
2023-01-25T14:36:24.599Z,100413.53
2023-01-25T14:38:54.660Z,100409.34
2023-01-25T14:41:40.121Z,100404.72
2023-01-25T14:44:14.918Z,100412.38
2023-01-25T14:46:43.046Z,100409.16
2023-01-25T14:49:26.725Z,100404.81
2023-01-25T14:52:14.741Z,100409.47
2023-01-25T14:54:59.763Z,100405.53
2023-01-25T14:57:35.354Z,100399.94
2023-01-25T15:00:09.753Z,100398.59
2023-01-25T15:02:56.693Z,100401.50
2023-01-25T15:05:30.346Z,100399.63
2023-01-25T15:08:09.975Z,100399.13
2023-01-25T15:11:19.552Z,100397.72
2023-01-25T15:13:49.944Z,100393.13
2023-01-25T15:16:18.455Z,100395.03
2023-01-25T15:18:54.310Z,100400.75
2023-01-25T15:21:33.093Z,100395.12
2023-01-25T15:24:07.942Z,100397.69
2023-01-25T15:26:36.704Z,100397.94
2023-01-25T15:29:16.142Z,100398.94
2023-01-25T15:31:44.558Z,100397.22
2023-01-25T15:34:18.412Z,100400.38
2023-01-25T15:36:47.455Z,100397.53
2023-01-25T15:39:17.956Z,100399.28
2023-01-25T15:41:48.917Z,100387.78
2023-01-25T15:44:17.839Z,100387.97
2023-01-25T15:46:49.479Z,100388.03
2023-01-25T15:49:21.695Z,100390.44
2023-01-25T15:51:50.125Z,100392.56
2023-01-25T15:54:18.045Z,100400.03
2023-01-25T15:56:47.696Z,100392.19
2023-01-25T15:59:17.872Z,100402.91
2023-01-25T16:01:45.965Z,100395.72
2023-01-25T16:04:14.434Z,100389.84
2023-01-25T16:06:51.968Z,100383.81
2023-01-25T16:09:21.969Z,100384.44
2023-01-25T16:11:55.954Z,100380.38
2023-01-25T16:14:30.184Z,100378.81
2023-01-25T16:17:01.759Z,100379.22
2023-01-25T16:19:30.775Z,100375.47
2023-01-25T16:21:58.662Z,100374.41
2023-01-25T16:24:28.029Z,100376.84
2023-01-25T16:26:58.471Z,100377.81
2023-01-25T16:29:28.965Z,100373.34
2023-01-25T16:31:57.372Z,100368.16
2023-01-25T16:34:25.446Z,100374.75
2023-01-25T16:36:55.241Z,100370.09
2023-01-25T16:39:26.671Z,100371.63
2023-01-25T16:41:55.306Z,100375.06
2023-01-25T16:44:23.982Z,100377.06
2023-01-25T16:46:51.942Z,100374.31
2023-01-25T16:49:22.743Z,100369.66
2023-01-25T16:51:51.917Z,100371.41
2023-01-25T16:54:20.890Z,100368.94
2023-01-25T16:56:49.712Z,100366.84
2023-01-25T16:59:18.982Z,100367.62
2023-01-25T17:01:49.010Z,100363.44
2023-01-25T17:04:17.572Z,100366.50
2023-01-25T17:06:47.953Z,100369.53
2023-01-25T17:09:23.435Z,100361.00
2023-01-25T17:11:53.965Z,100369.53
2023-01-25T17:14:22.810Z,100361.91
2023-01-25T17:16:52.180Z,100357.84
2023-01-25T17:19:20.971Z,100361.16
2023-01-25T17:21:48.989Z,100359.06
2023-01-25T17:24:19.458Z,100358.53
2023-01-25T17:26:48.019Z,100354.66
2023-01-25T17:29:16.633Z,100360.66
2023-01-25T17:31:44.748Z,100357.53
2023-01-25T17:34:16.318Z,100352.94
2023-01-25T17:36:45.449Z,100353.00
2023-01-25T17:39:16.010Z,100341.72
2023-01-25T17:41:44.962Z,100344.06
2023-01-25T17:44:14.384Z,100333.66
2023-01-25T17:46:42.457Z,100336.78
2023-01-25T17:49:13.185Z,100335.25
2023-01-25T17:51:41.636Z,100340.88
2023-01-25T17:54:10.624Z,100324.19
2023-01-25T17:56:39.777Z,100329.84
2023-01-25T17:59:11.933Z,100326.25
2023-01-25T18:01:42.754Z,100325.16
2023-01-25T18:04:13.499Z,100325.84
2023-01-25T18:06:41.594Z,100323.47
2023-01-25T18:09:09.837Z,100315.97
2023-01-25T18:11:40.163Z,100314.47
2023-01-25T18:14:12.897Z,100308.53
2023-01-25T18:16:41.831Z,100301.50
2023-01-25T18:19:10.614Z,100301.03
2023-01-25T18:21:39.204Z,100304.84
2023-01-25T18:24:25.161Z,100305.59
2023-01-25T18:27:04.131Z,100306.56
2023-01-25T18:29:49.069Z,100308.00
2023-01-25T18:32:17.106Z,100311.63
2023-01-25T18:34:47.027Z,100312.31
2023-01-25T18:37:20.961Z,100298.22
2023-01-25T18:39:54.238Z,100300.91
2023-01-25T18:42:24.335Z,100292.81
2023-01-25T18:44:52.779Z,100291.44
2023-01-25T18:47:22.661Z,100291.84
2023-01-25T18:49:52.387Z,100279.91
2023-01-25T18:52:22.092Z,100272.47
2023-01-25T18:54:50.175Z,100270.09
2023-01-25T18:57:18.294Z,100266.69
2023-01-25T18:59:46.795Z,100262.78
2023-01-25T19:02:16.351Z,100260.84
2023-01-25T19:04:45.740Z,100261.06
2023-01-25T19:07:14.178Z,100261.66
2023-01-25T19:09:45.310Z,100258.00
2023-01-25T19:12:13.764Z,100254.84
2023-01-25T19:14:41.756Z,100251.88
2023-01-25T19:17:10.274Z,100253.31
2023-01-25T19:19:38.896Z,100241.13
2023-01-25T19:22:06.926Z,100247.66
2023-01-25T19:24:35.184Z,100253.63
2023-01-25T19:27:03.738Z,100238.56
2023-01-25T19:29:31.903Z,100239.50
2023-01-25T19:31:59.882Z,100231.62
2023-01-25T19:34:28.226Z,100234.00
2023-01-25T19:36:57.571Z,100231.88
2023-01-25T19:39:25.616Z,100222.03
2023-01-25T19:41:54.613Z,100226.44
2023-01-25T19:44:22.754Z,100223.50
2023-01-25T19:46:50.974Z,100215.91
2023-01-25T19:49:19.284Z,100218.78
2023-01-25T19:51:53.252Z,100223.31
2023-01-25T19:54:23.220Z,100220.50
2023-01-25T19:56:51.405Z,100212.44
2023-01-25T19:59:25.618Z,100208.41
2023-01-25T20:01:54.499Z,100208.66
2023-01-25T20:04:24.787Z,100207.56
2023-01-25T20:06:53.269Z,100211.19
2023-01-25T20:09:25.182Z,100211.16
2023-01-25T20:11:56.313Z,100200.16
2023-01-25T20:14:24.429Z,100201.44
2023-01-25T20:16:52.993Z,100204.69
2023-01-25T20:19:21.504Z,100196.31
2023-01-25T20:21:49.636Z,100195.94
2023-01-25T20:24:18.013Z,100190.50
2023-01-25T20:26:46.466Z,100195.84
2023-01-25T20:29:14.662Z,100192.22
2023-01-25T20:31:44.578Z,100191.50
2023-01-25T20:34:18.439Z,100189.66
2023-01-25T20:36:47.072Z,100190.94
2023-01-25T20:39:20.366Z,100183.16
2023-01-25T20:41:48.796Z,100184.66
2023-01-25T20:44:18.197Z,100177.59
2023-01-25T20:46:46.470Z,100179.56
2023-01-25T20:49:16.614Z,100176.88
2023-01-25T20:51:46.036Z,100169.81
2023-01-25T20:54:14.774Z,100164.53
2023-01-25T20:56:43.331Z,100169.34
2023-01-25T20:59:11.664Z,100159.59
2023-01-25T21:01:39.780Z,100168.91
2023-01-25T21:04:09.846Z,100172.50
2023-01-25T21:06:38.916Z,100159.94
2023-01-25T21:09:07.127Z,100163.13
2023-01-25T21:11:35.234Z,100158.31
2023-01-25T21:14:03.895Z,100154.38
2023-01-25T21:16:32.046Z,100149.91
2023-01-25T21:19:04.141Z,100155.19
2023-01-25T21:21:35.024Z,100149.13
2023-01-25T21:24:05.521Z,100151.81
2023-01-25T21:26:35.419Z,100148.91
2023-01-25T21:29:04.212Z,100141.28
2023-01-25T21:31:34.832Z,100140.84
2023-01-25T21:34:04.463Z,100142.44
2023-01-25T21:36:32.611Z,100143.94
2023-01-25T21:39:00.670Z,100141.66
2023-01-25T21:41:31.154Z,100140.00
2023-01-25T21:44:18.554Z,100140.66
2023-01-25T21:47:12.484Z,100133.38
2023-01-25T21:49:53.481Z,100130.56
2023-01-25T21:52:21.877Z,100131.22
2023-01-25T21:54:49.957Z,100122.88
2023-01-25T21:57:18.048Z,100117.56
2023-01-25T21:59:46.537Z,100113.59
2023-01-25T22:02:15.397Z,100114.78
2023-01-25T22:04:43.870Z,100108.50
2023-01-25T22:07:12.167Z,100110.50
2023-01-25T22:09:40.213Z,100101.16
2023-01-25T22:12:08.567Z,100107.81
2023-01-25T22:14:36.913Z,100106.72
2023-01-25T22:17:05.322Z,100098.78
2023-01-25T22:19:33.746Z,100096.12
2023-01-25T22:22:01.773Z,100101.56
2023-01-25T22:24:29.775Z,100089.94
2023-01-25T22:26:59.722Z,100094.56
2023-01-25T22:29:27.716Z,100092.88
2023-01-25T22:31:56.434Z,100087.28
2023-01-25T22:34:24.788Z,100088.37
2023-01-25T22:36:52.825Z,100086.41
2023-01-25T22:39:20.834Z,100074.06
2023-01-25T22:41:49.123Z,100077.97
2023-01-25T22:44:17.133Z,100078.69
2023-01-25T22:46:45.163Z,100075.03
2023-01-25T22:49:13.953Z,100084.69
2023-01-25T22:51:41.925Z,100072.88
2023-01-25T22:54:09.826Z,100071.25
2023-01-25T22:56:39.225Z,100074.59
2023-01-25T22:59:08.283Z,100065.75
2023-01-25T23:01:36.429Z,100067.87
2023-01-25T23:04:05.003Z,100063.50
2023-01-25T23:06:34.465Z,100062.72
2023-01-25T23:09:04.557Z,100059.97
2023-01-25T23:11:38.581Z,100050.09
2023-01-25T23:14:27.637Z,100052.91
2023-01-25T23:17:14.222Z,100055.25
2023-01-25T23:19:42.072Z,100052.22
2023-01-25T23:22:10.307Z,100049.59
2023-01-25T23:24:38.302Z,100049.66
2023-01-25T23:27:06.182Z,100047.59
2023-01-25T23:29:34.450Z,100047.75
2023-01-25T23:32:02.490Z,100034.16
2023-01-25T23:34:35.057Z,100031.19
2023-01-25T23:37:04.074Z,100032.56
2023-01-25T23:39:32.022Z,100022.81
2023-01-25T23:41:59.853Z,100024.75
2023-01-25T23:44:28.406Z,100025.34
2023-01-25T23:46:56.387Z,100021.31
2023-01-25T23:49:24.473Z,100012.28
2023-01-25T23:51:52.735Z,100006.09
2023-01-25T23:54:20.542Z,100006.22
2023-01-25T23:56:48.414Z,100000.41
2023-01-25T23:59:16.662Z,100002.81
